createdAt,value
2022-08-16T00:00:52.258Z,992.67
2022-08-16T00:01:48.973Z,992.67
2022-08-16T00:02:49.096Z,992.65
2022-08-16T00:03:48.915Z,992.66
2022-08-16T00:04:51.108Z,992.69
2022-08-16T00:05:49.090Z,992.70
2022-08-16T00:06:49.887Z,992.68
2022-08-16T00:07:48.874Z,992.73
2022-08-16T00:08:49.876Z,992.74
2022-08-16T00:09:48.837Z,992.75
2022-08-16T00:10:48.857Z,992.74
2022-08-16T00:11:48.816Z,992.75
2022-08-16T00:12:49.075Z,992.80
2022-08-16T00:13:53.465Z,992.80
2022-08-16T00:14:49.787Z,992.77
2022-08-16T00:15:52.211Z,992.75
2022-08-16T00:17:01.478Z,992.78
2022-08-16T00:17:56.343Z,992.78
2022-08-16T00:18:49.735Z,992.82
2022-08-16T00:19:53.305Z,992.81
2022-08-16T00:20:50.739Z,992.83
2022-08-16T00:21:52.207Z,992.89
2022-08-16T00:22:49.673Z,992.89
2022-08-16T00:23:48.658Z,992.92
2022-08-16T00:24:51.423Z,992.96
2022-08-16T00:26:34.464Z,992.98
2022-08-16T00:26:49.622Z,992.98
2022-08-16T00:27:48.609Z,993.01
2022-08-16T00:28:48.598Z,992.99
2022-08-16T00:30:00.722Z,992.99
2022-08-16T00:30:49.594Z,993.01
2022-08-16T00:32:00.683Z,992.96
2022-08-16T00:32:49.774Z,992.94
2022-08-16T00:33:50.108Z,992.89
2022-08-16T00:34:52.704Z,992.91
2022-08-16T00:35:49.490Z,992.90
2022-08-16T00:36:48.499Z,992.93
2022-08-16T00:37:57.668Z,992.90
2022-08-16T00:38:49.451Z,992.92
2022-08-16T00:39:58.200Z,992.92
2022-08-16T00:40:50.960Z,992.89
2022-08-16T00:41:48.431Z,992.91
2022-08-16T00:42:48.683Z,992.91
2022-08-16T00:43:49.390Z,992.91
2022-08-16T00:44:48.380Z,992.93
2022-08-16T00:45:58.302Z,992.93
2022-08-16T00:46:52.980Z,992.93
2022-08-16T00:47:49.869Z,992.91
2022-08-16T00:48:48.329Z,992.91
2022-08-16T00:49:56.223Z,992.90
2022-08-16T00:50:49.292Z,992.91
2022-08-16T00:51:55.094Z,992.87
2022-08-16T00:52:51.318Z,992.91
2022-08-16T00:53:48.252Z,992.91
2022-08-16T00:54:48.242Z,992.87
2022-08-16T00:55:48.231Z,992.89
2022-08-16T00:56:56.495Z,992.90
2022-08-16T00:57:59.609Z,992.94
2022-08-16T00:58:49.191Z,992.93
2022-08-16T00:59:54.864Z,992.91
2022-08-16T01:00:53.986Z,992.90
2022-08-16T01:01:49.153Z,992.89
2022-08-16T01:02:48.984Z,992.89
2022-08-16T01:03:48.121Z,992.95
2022-08-16T01:05:09.275Z,992.96
2022-08-16T01:05:49.081Z,992.93
2022-08-16T01:06:49.097Z,992.95
2022-08-16T01:07:51.193Z,992.93
2022-08-16T01:08:49.054Z,992.95
2022-08-16T01:09:48.034Z,992.96
2022-08-16T01:10:48.035Z,992.96
2022-08-16T01:11:53.800Z,992.92
2022-08-16T01:12:49.225Z,992.91
2022-08-16T01:13:47.985Z,992.90
2022-08-16T01:14:47.974Z,992.87
2022-08-16T01:15:47.961Z,992.92
2022-08-16T01:16:49.164Z,992.88
2022-08-16T01:17:47.944Z,992.93
2022-08-16T01:18:48.924Z,992.93
2022-08-16T01:19:56.963Z,992.93
2022-08-16T01:20:47.910Z,992.96
2022-08-16T01:21:47.902Z,992.99
2022-08-16T01:22:59.085Z,992.98
2022-08-16T01:23:58.499Z,992.99
2022-08-16T01:24:54.102Z,993.04
2022-08-16T01:25:59.965Z,993.01
2022-08-16T01:26:48.831Z,993.00
2022-08-16T01:27:47.811Z,992.99
2022-08-16T01:28:47.789Z,992.96
2022-08-16T01:29:58.196Z,992.97
2022-08-16T01:30:49.423Z,992.99
2022-08-16T01:31:47.762Z,992.97
2022-08-16T01:33:01.734Z,992.97
2022-08-16T01:33:49.698Z,992.97
2022-08-16T01:34:47.751Z,992.95
2022-08-16T01:35:52.906Z,992.98
2022-08-16T01:36:47.704Z,992.93
2022-08-16T01:37:53.136Z,992.94
2022-08-16T01:38:51.246Z,992.94
2022-08-16T01:39:48.666Z,992.94
2022-08-16T01:40:47.642Z,992.95
2022-08-16T01:41:47.622Z,992.92
2022-08-16T01:42:48.185Z,992.93
2022-08-16T01:43:47.614Z,992.93
2022-08-16T01:44:48.573Z,992.90
2022-08-16T01:45:47.551Z,992.94
2022-08-16T01:46:48.551Z,992.94
2022-08-16T01:47:49.492Z,992.94
2022-08-16T01:48:47.515Z,992.93
2022-08-16T01:51:08.153Z,992.95
2022-08-16T01:51:08.296Z,992.94
2022-08-16T01:51:48.474Z,992.94
2022-08-16T01:52:47.747Z,992.94
2022-08-16T01:53:54.524Z,992.91
2022-08-16T01:54:48.432Z,992.87
2022-08-16T01:55:53.830Z,992.88
2022-08-16T01:56:48.403Z,992.86
2022-08-16T01:57:53.169Z,992.86
2022-08-16T01:58:48.371Z,992.87
2022-08-16T01:59:47.377Z,992.87
2022-08-16T02:00:48.354Z,992.87
2022-08-16T02:01:52.530Z,992.89
2022-08-16T02:02:52.520Z,992.88
2022-08-16T02:03:50.479Z,992.89
2022-08-16T02:04:49.028Z,992.93
2022-08-16T02:05:51.930Z,992.88
2022-08-16T02:06:47.274Z,992.86
2022-08-16T02:07:47.269Z,992.90
2022-08-16T02:08:47.275Z,992.89
2022-08-16T02:09:56.935Z,992.88
2022-08-16T02:10:48.216Z,992.84
2022-08-16T02:11:48.412Z,992.88
2022-08-16T02:12:51.629Z,992.86
2022-08-16T02:13:48.246Z,992.91
2022-08-16T02:14:48.146Z,992.88
2022-08-16T02:15:47.166Z,992.91
2022-08-16T02:16:47.129Z,992.89
2022-08-16T02:17:47.128Z,992.86
2022-08-16T02:18:48.124Z,992.85
2022-08-16T02:20:00.037Z,992.78
2022-08-16T02:20:48.082Z,992.79
2022-08-16T02:22:08.584Z,992.76
2022-08-16T02:22:48.345Z,992.78
2022-08-16T02:23:47.067Z,992.81
2022-08-16T02:24:48.017Z,992.79
2022-08-16T02:25:52.844Z,992.78
2022-08-16T02:26:48.007Z,992.78
2022-08-16T02:27:50.662Z,992.80
2022-08-16T02:28:47.364Z,992.81
2022-08-16T02:29:46.975Z,992.83
2022-08-16T02:30:50.875Z,992.82
2022-08-16T02:32:04.030Z,992.82
2022-08-16T02:32:51.266Z,992.81
2022-08-16T02:33:49.973Z,992.82
2022-08-16T02:34:46.888Z,992.83
2022-08-16T02:35:54.074Z,992.82
2022-08-16T02:36:49.948Z,992.80
2022-08-16T02:37:53.036Z,992.75
2022-08-16T02:38:47.858Z,992.74
2022-08-16T02:39:46.904Z,992.74
2022-08-16T02:40:47.808Z,992.72
2022-08-16T02:41:46.913Z,992.73
2022-08-16T02:42:49.743Z,992.69
2022-08-16T02:43:46.786Z,992.70
2022-08-16T02:44:46.758Z,992.75
2022-08-16T02:45:46.745Z,992.73
2022-08-16T02:46:50.471Z,992.75
2022-08-16T02:48:01.430Z,992.75
2022-08-16T02:48:49.272Z,992.77
2022-08-16T02:50:52.438Z,992.80
2022-08-16T02:50:53.545Z,992.81
2022-08-16T02:51:47.659Z,992.81
2022-08-16T02:52:46.702Z,992.82
2022-08-16T02:53:46.693Z,992.89
2022-08-16T02:54:46.633Z,992.88
2022-08-16T02:55:50.529Z,992.87
2022-08-16T02:56:47.898Z,992.88
2022-08-16T02:57:53.916Z,992.87
2022-08-16T02:58:47.722Z,992.86
2022-08-16T02:59:46.559Z,992.87
2022-08-16T03:00:50.167Z,992.85
2022-08-16T03:01:46.586Z,992.84
2022-08-16T03:02:46.747Z,992.82
2022-08-16T03:04:39.439Z,992.79
2022-08-16T03:04:52.473Z,992.80
2022-08-16T03:05:49.933Z,992.79
2022-08-16T03:06:47.460Z,992.78
2022-08-16T03:07:50.639Z,992.85
2022-08-16T03:08:50.677Z,992.79
2022-08-16T03:09:47.451Z,992.82
2022-08-16T03:10:46.442Z,992.81
2022-08-16T03:11:46.403Z,992.80
2022-08-16T03:12:56.013Z,992.84
2022-08-16T03:13:47.538Z,992.81
2022-08-16T03:14:46.352Z,992.80
2022-08-16T03:15:46.342Z,992.77
2022-08-16T03:16:59.212Z,992.75
2022-08-16T03:17:53.174Z,992.77
2022-08-16T03:18:47.316Z,992.79
2022-08-16T03:19:48.028Z,992.78
2022-08-16T03:20:55.651Z,992.78
2022-08-16T03:21:47.263Z,992.79
2022-08-16T03:22:46.368Z,992.76
2022-08-16T03:23:46.253Z,992.78
2022-08-16T03:24:46.243Z,992.78
2022-08-16T03:25:48.397Z,992.79
2022-08-16T03:26:46.316Z,992.83
2022-08-16T03:27:46.186Z,992.81
2022-08-16T03:28:46.162Z,992.83
2022-08-16T03:29:54.400Z,992.85
2022-08-16T03:30:47.581Z,992.87
2022-08-16T03:31:46.136Z,992.92
2022-08-16T03:32:51.126Z,992.91
2022-08-16T03:33:46.103Z,992.92
2022-08-16T03:34:49.902Z,992.91
2022-08-16T03:35:46.084Z,992.91
2022-08-16T03:36:46.062Z,992.90
2022-08-16T03:38:01.634Z,992.91
2022-08-16T03:38:47.032Z,992.90
2022-08-16T03:39:46.070Z,992.91
2022-08-16T03:40:46.004Z,992.88
2022-08-16T03:41:50.200Z,992.94
2022-08-16T03:43:19.043Z,992.95
2022-08-16T03:43:50.613Z,992.94
2022-08-16T03:44:47.640Z,992.99
2022-08-16T03:45:45.932Z,992.95
2022-08-16T03:46:50.089Z,992.99
2022-08-16T03:47:45.915Z,992.98
2022-08-16T03:48:45.936Z,992.98
2022-08-16T03:49:45.884Z,992.97
2022-08-16T03:51:00.152Z,992.99
2022-08-16T03:51:46.857Z,993.01
2022-08-16T03:52:45.985Z,992.98
2022-08-16T03:53:45.846Z,993.00
2022-08-16T03:54:57.547Z,992.99
2022-08-16T03:55:46.802Z,992.97
2022-08-16T03:56:57.068Z,993.01
2022-08-16T03:57:52.248Z,993.01
2022-08-16T03:58:48.389Z,993.00
2022-08-16T03:59:45.755Z,992.98
2022-08-16T04:00:45.781Z,992.99
2022-08-16T04:01:45.790Z,993.00
2022-08-16T04:02:46.898Z,992.99
2022-08-16T04:03:45.696Z,992.96
2022-08-16T04:04:45.696Z,993.00
2022-08-16T04:05:46.760Z,993.01
2022-08-16T04:06:45.656Z,993.02
2022-08-16T04:07:45.654Z,993.04
2022-08-16T04:08:45.628Z,993.00
2022-08-16T04:09:45.691Z,993.00
2022-08-16T04:10:45.607Z,993.07
2022-08-16T04:11:46.588Z,993.04
2022-08-16T04:13:04.146Z,993.00
2022-08-16T04:14:00.533Z,993.00
2022-08-16T04:14:48.104Z,993.02
2022-08-16T04:15:45.548Z,993.04
2022-08-16T04:16:45.549Z,993.00
2022-08-16T04:17:45.520Z,993.04
2022-08-16T04:18:46.141Z,993.06
2022-08-16T04:19:46.687Z,993.06
2022-08-16T04:20:45.477Z,993.02
2022-08-16T04:21:45.872Z,993.05
2022-08-16T04:22:45.483Z,993.04
2022-08-16T04:23:45.435Z,992.99
2022-08-16T04:24:55.095Z,993.02
2022-08-16T04:25:47.068Z,992.98
2022-08-16T04:26:46.064Z,993.02
2022-08-16T04:27:55.818Z,993.00
2022-08-16T04:28:55.685Z,993.03
2022-08-16T04:29:46.628Z,993.03
2022-08-16T04:30:45.329Z,993.07
2022-08-16T04:31:45.329Z,993.10
2022-08-16T04:32:49.208Z,993.11
2022-08-16T04:33:50.740Z,993.12
2022-08-16T04:34:46.323Z,993.13
2022-08-16T04:35:45.279Z,993.13
2022-08-16T04:36:45.270Z,993.11
2022-08-16T04:37:45.251Z,993.08
2022-08-16T04:38:45.240Z,993.12
2022-08-16T04:39:47.405Z,993.09
2022-08-16T04:40:46.241Z,993.12
2022-08-16T04:41:45.205Z,993.16
2022-08-16T04:42:45.192Z,993.15
2022-08-16T04:43:45.171Z,993.24
2022-08-16T04:44:54.397Z,993.23
2022-08-16T04:45:46.152Z,993.25
2022-08-16T04:47:02.627Z,993.29
2022-08-16T04:47:46.122Z,993.29
2022-08-16T04:48:46.112Z,993.30
2022-08-16T04:49:46.093Z,993.35
2022-08-16T04:50:45.121Z,993.35
2022-08-16T04:51:45.083Z,993.34
2022-08-16T04:52:46.097Z,993.29
2022-08-16T04:53:45.045Z,993.27
2022-08-16T04:54:45.042Z,993.28
2022-08-16T04:55:45.024Z,993.30
2022-08-16T04:56:46.276Z,993.25
2022-08-16T04:57:45.000Z,993.29
2022-08-16T04:58:47.081Z,993.24
2022-08-16T04:59:44.989Z,993.27
2022-08-16T05:00:44.952Z,993.25
2022-08-16T05:01:58.191Z,993.22
2022-08-16T05:02:45.963Z,993.26
2022-08-16T05:04:00.210Z,993.20
2022-08-16T05:04:45.948Z,993.21
2022-08-16T05:05:55.872Z,993.21
2022-08-16T05:06:46.216Z,993.21
2022-08-16T05:07:58.346Z,993.18
2022-08-16T05:08:47.383Z,993.17
2022-08-16T05:09:48.986Z,993.20
2022-08-16T05:10:44.814Z,993.17
2022-08-16T05:11:44.803Z,993.17
2022-08-16T05:12:44.903Z,993.18
2022-08-16T05:13:44.794Z,993.20
2022-08-16T05:14:46.574Z,993.19
2022-08-16T05:15:45.754Z,993.21
2022-08-16T05:16:44.736Z,993.24
2022-08-16T05:17:44.734Z,993.27
2022-08-16T05:18:44.716Z,993.27
2022-08-16T05:19:46.515Z,993.34
2022-08-16T05:20:54.026Z,993.35
2022-08-16T05:21:45.676Z,993.33
2022-08-16T05:22:44.703Z,993.39
2022-08-16T05:23:51.597Z,993.42
2022-08-16T05:24:45.652Z,993.45
2022-08-16T05:25:48.325Z,993.44
2022-08-16T05:26:49.600Z,993.50
2022-08-16T05:27:47.773Z,993.52
2022-08-16T05:28:46.199Z,993.54
2022-08-16T05:29:57.666Z,993.51
2022-08-16T05:30:45.565Z,993.49
2022-08-16T05:31:48.224Z,993.52
2022-08-16T05:32:45.895Z,993.52
2022-08-16T05:33:44.525Z,993.54
2022-08-16T05:34:45.527Z,993.50
2022-08-16T05:35:44.498Z,993.50
2022-08-16T05:36:45.467Z,993.55
2022-08-16T05:37:44.486Z,993.53
2022-08-16T05:38:44.438Z,993.56
2022-08-16T05:39:44.492Z,993.55
2022-08-16T05:40:59.603Z,993.57
2022-08-16T05:41:45.983Z,993.62
2022-08-16T05:42:47.795Z,993.67
2022-08-16T05:43:46.786Z,993.64
2022-08-16T05:44:44.368Z,993.67
2022-08-16T05:45:44.385Z,993.69
2022-08-16T05:46:45.337Z,993.67
2022-08-16T05:47:44.325Z,993.68
2022-08-16T05:48:44.315Z,993.68
2022-08-16T05:49:45.306Z,993.67
2022-08-16T05:50:45.311Z,993.68
2022-08-16T05:51:45.727Z,993.69
2022-08-16T05:52:44.896Z,993.67
2022-08-16T05:53:44.249Z,993.68
2022-08-16T05:54:47.491Z,993.70
2022-08-16T05:55:44.251Z,993.65
2022-08-16T05:56:44.201Z,993.66
2022-08-16T05:57:45.219Z,993.62
2022-08-16T05:58:45.186Z,993.64
2022-08-16T05:59:44.167Z,993.65
2022-08-16T06:00:44.159Z,993.67
2022-08-16T06:01:44.166Z,993.68
2022-08-16T06:02:44.179Z,993.67
2022-08-16T06:03:44.132Z,993.67
2022-08-16T06:04:44.878Z,993.66
2022-08-16T06:05:44.109Z,993.67
2022-08-16T06:06:55.877Z,993.65
2022-08-16T06:07:45.070Z,993.64
2022-08-16T06:08:46.442Z,993.66
2022-08-16T06:09:44.664Z,993.68
2022-08-16T06:11:02.573Z,993.73
2022-08-16T06:11:45.020Z,993.71
2022-08-16T06:12:44.068Z,993.71
2022-08-16T06:13:44.011Z,993.73
2022-08-16T06:14:44.012Z,993.77
2022-08-16T06:15:43.982Z,993.80
2022-08-16T06:16:43.934Z,993.78
2022-08-16T06:17:44.613Z,993.80
2022-08-16T06:18:43.931Z,993.81
2022-08-16T06:19:44.681Z,993.78
2022-08-16T06:20:55.238Z,993.78
2022-08-16T06:21:44.873Z,993.78
2022-08-16T06:22:44.622Z,993.77
2022-08-16T06:23:43.842Z,993.81
2022-08-16T06:24:53.374Z,993.83
2022-08-16T06:25:52.995Z,993.88
2022-08-16T06:26:45.003Z,993.83
2022-08-16T06:27:57.455Z,993.84
2022-08-16T06:28:44.780Z,993.82
2022-08-16T06:29:43.763Z,993.83
2022-08-16T06:30:45.373Z,993.81
2022-08-16T06:31:49.176Z,993.82
2022-08-16T06:32:48.456Z,993.81
2022-08-16T06:33:44.676Z,993.79
2022-08-16T06:34:56.044Z,993.78
2022-08-16T06:35:44.675Z,993.79
2022-08-16T06:36:43.703Z,993.77
2022-08-16T06:37:47.555Z,993.77
2022-08-16T06:38:52.301Z,993.77
2022-08-16T06:39:49.187Z,993.73
2022-08-16T06:40:49.292Z,993.76
2022-08-16T06:41:43.605Z,993.75
2022-08-16T06:42:47.978Z,993.74
2022-08-16T06:43:43.585Z,993.73
2022-08-16T06:44:43.571Z,993.73
2022-08-16T06:45:43.776Z,993.76
2022-08-16T06:46:43.535Z,993.73
2022-08-16T06:47:54.445Z,993.76
2022-08-16T06:48:48.318Z,993.76
2022-08-16T06:49:52.904Z,993.75
2022-08-16T06:50:44.516Z,993.73
2022-08-16T06:51:46.419Z,993.82
2022-08-16T06:52:57.997Z,993.79
2022-08-16T06:53:44.455Z,993.81
2022-08-16T06:54:43.424Z,993.83
2022-08-16T06:55:44.435Z,993.85
2022-08-16T06:56:43.455Z,993.84
2022-08-16T06:57:43.399Z,993.83
2022-08-16T06:58:43.378Z,993.87
2022-08-16T06:59:52.198Z,993.89
2022-08-16T07:00:44.421Z,993.89
2022-08-16T07:01:53.649Z,993.93
2022-08-16T07:02:51.290Z,993.94
2022-08-16T07:03:54.970Z,993.92
2022-08-16T07:04:44.296Z,993.90
2022-08-16T07:05:43.319Z,993.91
2022-08-16T07:06:43.544Z,993.89
2022-08-16T07:07:43.257Z,993.91
2022-08-16T07:08:43.247Z,993.89
2022-08-16T07:09:43.228Z,993.90
2022-08-16T07:10:43.246Z,993.88
2022-08-16T07:11:45.738Z,993.88
2022-08-16T07:12:47.051Z,993.86
2022-08-16T07:14:03.894Z,993.87
2022-08-16T07:14:44.178Z,993.83
2022-08-16T07:15:50.062Z,993.85
2022-08-16T07:16:44.169Z,993.85
2022-08-16T07:17:43.118Z,993.85
2022-08-16T07:18:59.295Z,993.87
2022-08-16T07:20:47.370Z,993.85
2022-08-16T07:21:46.143Z,993.89
2022-08-16T07:22:42.793Z,993.90
2022-08-16T07:23:42.783Z,993.91
2022-08-16T07:24:45.981Z,993.87
2022-08-16T07:25:41.751Z,993.88
2022-08-16T07:26:41.742Z,993.88
2022-08-16T07:27:42.765Z,993.87
2022-08-16T07:28:41.712Z,993.85
2022-08-16T07:29:41.701Z,993.85
2022-08-16T07:30:46.412Z,993.87
2022-08-16T07:31:42.692Z,993.86
2022-08-16T07:32:41.688Z,993.84
2022-08-16T07:33:53.775Z,993.84
2022-08-16T07:34:48.307Z,993.88
2022-08-16T07:35:44.434Z,993.90
2022-08-16T07:36:42.614Z,993.91
2022-08-16T07:37:41.605Z,993.90
2022-08-16T07:38:41.565Z,993.89
2022-08-16T07:39:43.087Z,993.86
2022-08-16T07:41:00.713Z,993.86
2022-08-16T07:41:42.551Z,993.88
2022-08-16T07:42:41.515Z,993.86
2022-08-16T07:43:41.733Z,993.88
2022-08-16T07:44:50.259Z,993.86
2022-08-16T07:45:43.193Z,993.85
2022-08-16T07:46:41.476Z,993.84
2022-08-16T07:47:42.049Z,993.85
2022-08-16T07:48:41.435Z,993.84
2022-08-16T07:49:53.119Z,993.84
2022-08-16T07:50:56.185Z,993.86
2022-08-16T07:51:42.432Z,993.84
2022-08-16T07:52:41.396Z,993.86
2022-08-16T07:53:43.626Z,993.90
2022-08-16T07:54:45.718Z,993.93
2022-08-16T07:55:47.863Z,993.95
2022-08-16T07:56:42.347Z,993.94
2022-08-16T07:57:55.901Z,993.95
2022-08-16T07:58:42.302Z,993.94
2022-08-16T07:59:42.865Z,993.94
2022-08-16T08:00:42.311Z,993.94
2022-08-16T08:01:41.278Z,993.96
2022-08-16T08:02:41.277Z,993.97
2022-08-16T08:03:44.918Z,993.94
2022-08-16T08:04:42.216Z,993.94
2022-08-16T08:05:41.275Z,993.94
2022-08-16T08:06:41.207Z,993.97
2022-08-16T08:07:45.250Z,993.93
2022-08-16T08:08:50.145Z,993.92
2022-08-16T08:09:43.507Z,993.92
2022-08-16T08:10:41.139Z,993.93
2022-08-16T08:11:41.158Z,993.91
2022-08-16T08:12:43.789Z,993.90
2022-08-16T08:13:42.539Z,993.90
2022-08-16T08:14:41.091Z,993.91
2022-08-16T08:15:52.490Z,993.90
2022-08-16T08:16:45.366Z,993.89
2022-08-16T08:17:43.136Z,993.91
2022-08-16T08:18:41.044Z,993.90
2022-08-16T08:19:42.038Z,993.88
2022-08-16T08:20:42.011Z,993.82
2022-08-16T08:21:59.635Z,993.84
2022-08-16T08:22:41.982Z,993.84
2022-08-16T08:23:42.522Z,993.81
2022-08-16T08:24:43.943Z,993.81
2022-08-16T08:25:54.848Z,993.81
2022-08-16T08:26:43.017Z,993.80
2022-08-16T08:27:40.922Z,993.78
2022-08-16T08:28:40.902Z,993.77
2022-08-16T08:29:40.901Z,993.78
2022-08-16T08:30:51.144Z,993.77
2022-08-16T08:31:41.901Z,993.78
2022-08-16T08:32:58.624Z,993.77
2022-08-16T08:33:46.688Z,993.77
2022-08-16T08:34:41.824Z,993.76
2022-08-16T08:35:40.819Z,993.78
2022-08-16T08:36:40.816Z,993.77
2022-08-16T08:37:54.763Z,993.78
2022-08-16T08:38:44.962Z,993.78
2022-08-16T08:39:54.690Z,993.81
2022-08-16T08:40:41.733Z,993.80
2022-08-16T08:41:40.755Z,993.81
2022-08-16T08:42:40.743Z,993.83
2022-08-16T08:43:41.828Z,993.78
2022-08-16T08:44:40.693Z,993.85
2022-08-16T08:45:48.092Z,993.85
2022-08-16T08:46:41.684Z,993.86
2022-08-16T08:47:40.654Z,993.86
2022-08-16T08:48:43.921Z,993.89
2022-08-16T08:49:50.319Z,993.87
2022-08-16T08:50:41.609Z,993.93
2022-08-16T08:51:41.634Z,993.88
2022-08-16T08:52:40.746Z,993.86
2022-08-16T08:53:40.573Z,993.87
2022-08-16T08:54:40.552Z,993.86
2022-08-16T08:55:40.565Z,993.91
2022-08-16T08:56:45.317Z,993.91
2022-08-16T08:57:41.525Z,993.87
2022-08-16T08:58:40.503Z,993.87
2022-08-16T08:59:41.518Z,993.89
2022-08-16T09:00:50.386Z,993.91
2022-08-16T09:01:56.696Z,993.93
2022-08-16T09:02:41.522Z,993.91
2022-08-16T09:03:40.493Z,993.94
2022-08-16T09:04:40.424Z,993.93
2022-08-16T09:05:40.414Z,993.91
2022-08-16T09:06:43.738Z,993.92
2022-08-16T09:08:01.746Z,993.93
2022-08-16T09:08:41.358Z,993.90
2022-08-16T09:09:41.409Z,993.89
2022-08-16T09:10:40.898Z,993.92
2022-08-16T09:11:41.023Z,993.91
2022-08-16T09:12:40.338Z,993.90
2022-08-16T09:13:47.353Z,993.88
2022-08-16T09:14:49.440Z,993.89
2022-08-16T09:15:41.268Z,993.88
2022-08-16T09:17:01.627Z,993.89
2022-08-16T09:17:51.481Z,993.88
2022-08-16T09:18:41.259Z,993.88
2022-08-16T09:19:40.850Z,993.88
2022-08-16T09:20:59.527Z,993.91
2022-08-16T09:21:41.204Z,993.91
2022-08-16T09:22:40.208Z,993.93
2022-08-16T09:23:40.168Z,993.94
2022-08-16T09:24:52.910Z,993.92
2022-08-16T09:25:41.142Z,993.99
2022-08-16T09:26:44.723Z,993.95
2022-08-16T09:27:57.290Z,993.97
2022-08-16T09:29:15.751Z,993.92
2022-08-16T09:29:45.232Z,993.96
2022-08-16T09:30:44.344Z,993.96
2022-08-16T09:31:41.920Z,993.99
2022-08-16T09:32:40.059Z,993.99
2022-08-16T09:33:41.048Z,993.99
2022-08-16T09:34:40.011Z,994.03
2022-08-16T09:35:42.550Z,994.04
2022-08-16T09:36:46.159Z,994.05
2022-08-16T09:37:40.988Z,994.04
2022-08-16T09:38:40.744Z,993.99
2022-08-16T09:39:41.430Z,993.99
2022-08-16T09:40:42.419Z,994.01
2022-08-16T09:41:39.924Z,994.02
2022-08-16T09:42:55.862Z,993.99
2022-08-16T09:43:59.294Z,994.02
2022-08-16T09:45:11.995Z,994.02
2022-08-16T09:45:40.873Z,993.99
2022-08-16T09:46:49.055Z,993.99
2022-08-16T09:47:56.631Z,993.96
2022-08-16T09:48:44.844Z,993.97
2022-08-16T09:49:41.363Z,993.97
2022-08-16T09:50:39.930Z,993.91
2022-08-16T09:51:39.793Z,993.94
2022-08-16T09:52:44.416Z,993.93
2022-08-16T09:53:40.763Z,993.93
2022-08-16T09:54:39.750Z,993.94
2022-08-16T09:55:44.495Z,993.90
2022-08-16T09:56:52.335Z,993.90
2022-08-16T09:57:40.723Z,993.90
2022-08-16T09:59:05.169Z,993.88
2022-08-16T09:59:42.119Z,993.89
2022-08-16T10:00:44.991Z,993.87
2022-08-16T10:01:43.385Z,993.80
2022-08-16T10:02:44.221Z,993.85
2022-08-16T10:04:01.732Z,993.85
2022-08-16T10:04:54.895Z,993.85
2022-08-16T10:05:40.605Z,993.78
2022-08-16T10:06:39.584Z,993.83
2022-08-16T10:07:44.938Z,993.84
2022-08-16T10:09:04.348Z,993.84
2022-08-16T10:09:44.761Z,993.86
2022-08-16T10:10:40.540Z,993.84
2022-08-16T10:11:50.293Z,993.86
2022-08-16T10:12:42.554Z,993.83
2022-08-16T10:13:39.504Z,993.84
2022-08-16T10:14:39.477Z,993.81
2022-08-16T10:15:40.475Z,993.80
2022-08-16T10:16:39.459Z,993.79
2022-08-16T10:17:39.470Z,993.78
2022-08-16T10:18:56.070Z,993.82
2022-08-16T10:19:40.418Z,993.78
2022-08-16T10:20:39.389Z,993.76
2022-08-16T10:21:39.475Z,993.77
2022-08-16T10:22:39.377Z,993.79
2022-08-16T10:23:39.379Z,993.78
2022-08-16T10:24:39.362Z,993.79
2022-08-16T10:27:17.537Z,993.82
2022-08-16T10:27:18.015Z,993.84
2022-08-16T10:27:47.282Z,993.82
2022-08-16T10:28:41.877Z,993.82
2022-08-16T10:29:59.954Z,993.87
2022-08-16T10:30:40.265Z,993.83
2022-08-16T10:31:44.241Z,993.79
2022-08-16T10:32:40.260Z,993.80
2022-08-16T10:33:40.261Z,993.80
2022-08-16T10:34:39.190Z,993.79
2022-08-16T10:35:46.624Z,993.81
2022-08-16T10:36:40.180Z,993.79
2022-08-16T10:37:39.190Z,993.84
2022-08-16T10:38:39.157Z,993.77
2022-08-16T10:39:41.696Z,993.73
2022-08-16T10:40:39.161Z,993.74
2022-08-16T10:41:40.112Z,993.77
2022-08-16T10:42:39.130Z,993.72
2022-08-16T10:43:39.095Z,993.69
2022-08-16T10:44:39.073Z,993.75
2022-08-16T10:45:39.072Z,993.71
2022-08-16T10:46:41.785Z,993.72
2022-08-16T10:47:39.059Z,993.69
2022-08-16T10:48:39.108Z,993.74
2022-08-16T10:49:39.015Z,993.72
2022-08-16T10:50:39.000Z,993.70
2022-08-16T10:52:01.059Z,993.70
2022-08-16T10:53:39.548Z,993.72
2022-08-16T10:54:58.723Z,993.72
2022-08-16T10:55:40.469Z,993.68
2022-08-16T10:56:52.749Z,993.74
2022-08-16T10:57:39.918Z,993.70
2022-08-16T10:58:38.893Z,993.70
2022-08-16T10:59:51.781Z,993.71
2022-08-16T11:00:39.865Z,993.71
2022-08-16T11:01:43.639Z,993.79
2022-08-16T11:02:58.566Z,993.80
2022-08-16T11:03:43.188Z,993.79
2022-08-16T11:06:39.913Z,993.74
2022-08-16T11:07:52.174Z,993.72
2022-08-16T11:08:43.341Z,993.75
2022-08-16T11:09:43.214Z,993.73
2022-08-16T11:12:13.322Z,993.72
2022-08-16T11:12:39.821Z,993.71
2022-08-16T11:14:39.862Z,993.71
2022-08-16T11:15:38.677Z,993.70
2022-08-16T11:17:39.672Z,993.64
2022-08-16T11:18:48.272Z,993.68
2022-08-16T11:20:42.083Z,993.68
2022-08-16T11:22:23.390Z,993.70
2022-08-16T11:22:48.457Z,993.73
2022-08-16T11:23:39.559Z,993.72
2022-08-16T11:24:43.350Z,993.72
2022-08-16T11:26:39.539Z,993.73
2022-08-16T11:27:38.529Z,993.75
2022-08-16T11:29:39.497Z,993.74
2022-08-16T11:30:39.323Z,993.71
2022-08-16T11:31:38.452Z,993.72
2022-08-16T11:32:38.461Z,993.72
2022-08-16T11:33:55.058Z,993.70
2022-08-16T11:35:05.703Z,993.71
2022-08-16T11:36:39.442Z,993.78
2022-08-16T11:38:51.740Z,993.79
2022-08-16T11:39:39.473Z,993.77
2022-08-16T11:40:38.462Z,993.73
2022-08-16T11:41:38.343Z,993.72
2022-08-16T11:42:39.322Z,993.77
2022-08-16T11:43:38.351Z,993.73
2022-08-16T11:44:52.016Z,993.70
2022-08-16T11:45:39.265Z,993.71
2022-08-16T11:46:42.894Z,993.74
2022-08-16T11:47:39.252Z,993.74
2022-08-16T11:48:38.273Z,993.71
2022-08-16T11:49:38.246Z,993.70
2022-08-16T11:50:38.352Z,993.72
2022-08-16T11:51:38.241Z,993.74
2022-08-16T11:52:38.197Z,993.72
2022-08-16T11:53:38.274Z,993.74
2022-08-16T11:54:38.145Z,993.72
2022-08-16T11:55:38.503Z,993.71
2022-08-16T11:56:51.516Z,993.72
2022-08-16T11:57:39.104Z,993.72
2022-08-16T11:58:38.107Z,993.70
2022-08-16T11:59:39.941Z,993.69
2022-08-16T12:00:50.382Z,993.68
2022-08-16T12:01:55.018Z,993.70
2022-08-16T12:02:39.074Z,993.68
2022-08-16T12:03:39.076Z,993.69
2022-08-16T12:04:38.101Z,993.68
2022-08-16T12:05:38.064Z,993.69
2022-08-16T12:06:37.993Z,993.76
2022-08-16T12:07:37.983Z,993.68
2022-08-16T12:08:38.017Z,993.72
2022-08-16T12:09:43.220Z,993.68
2022-08-16T12:10:38.936Z,993.65
2022-08-16T12:11:37.908Z,993.65
2022-08-16T12:12:37.956Z,993.67
2022-08-16T12:13:37.906Z,993.69
2022-08-16T12:14:37.878Z,993.62
2022-08-16T12:15:37.962Z,993.64
2022-08-16T12:16:37.868Z,993.62
2022-08-16T12:17:37.856Z,993.65
2022-08-16T12:18:37.859Z,993.66
2022-08-16T12:19:38.044Z,993.69
2022-08-16T12:20:37.827Z,993.63
2022-08-16T12:21:58.198Z,993.65
2022-08-16T12:22:38.769Z,993.68
2022-08-16T12:23:37.762Z,993.63
2022-08-16T12:24:37.749Z,993.63
2022-08-16T12:25:37.721Z,993.68
2022-08-16T12:26:37.717Z,993.63
2022-08-16T12:27:39.397Z,993.65
2022-08-16T12:28:55.935Z,993.65
2022-08-16T12:29:38.671Z,993.62
2022-08-16T12:30:38.733Z,993.62
2022-08-16T12:31:37.641Z,993.59
2022-08-16T12:32:41.748Z,993.62
2022-08-16T12:33:44.517Z,993.60
2022-08-16T12:34:38.631Z,993.64
2022-08-16T12:35:38.602Z,993.60
2022-08-16T12:36:37.601Z,993.63
2022-08-16T12:37:38.847Z,993.62
2022-08-16T12:38:41.463Z,993.65
2022-08-16T12:39:38.664Z,993.60
2022-08-16T12:40:38.589Z,993.62